createdAt,value
2023-05-08T00:00:14.401Z,101353.34
2023-05-08T00:03:00.637Z,101354.41
2023-05-08T00:05:46.268Z,101353.41
2023-05-08T00:08:32.283Z,101355.28
2023-05-08T00:11:17.553Z,101354.34
2023-05-08T00:14:02.600Z,101347.38
2023-05-08T00:16:47.889Z,101349.03
2023-05-08T00:19:33.265Z,101351.63
2023-05-08T00:22:19.196Z,101347.97
2023-05-08T00:25:04.957Z,101358.53
2023-05-08T00:27:50.190Z,101353.28
2023-05-08T00:30:35.637Z,101352.28
2023-05-08T00:33:21.240Z,101361.66
2023-05-08T00:36:06.927Z,101354.81
2023-05-08T00:38:51.766Z,101353.16
2023-05-08T00:41:37.265Z,101350.41
2023-05-08T00:44:22.453Z,101348.31
2023-05-08T00:47:08.535Z,101350.97
2023-05-08T00:49:53.921Z,101346.56
2023-05-08T00:52:39.547Z,101349.06
2023-05-08T00:55:24.904Z,101345.69
2023-05-08T00:58:10.797Z,101354.25
2023-05-08T01:00:57.084Z,101355.28
2023-05-08T01:03:43.299Z,101356.19
2023-05-08T01:06:28.502Z,101350.97
2023-05-08T01:09:13.843Z,101351.22
2023-05-08T01:12:10.427Z,101344.31
2023-05-08T01:14:55.568Z,101349.56
2023-05-08T01:18:02.708Z,101339.94
2023-05-08T01:21:00.301Z,101350.91
2023-05-08T01:24:27.263Z,101353.34
2023-05-08T01:27:23.281Z,101342.09
2023-05-08T01:30:36.430Z,101353.78
2023-05-08T01:33:32.423Z,101358.16
2023-05-08T01:36:25.317Z,101365.28
2023-05-08T01:39:20.201Z,101359.84
2023-05-08T01:42:18.282Z,101360.81
2023-05-08T01:45:11.037Z,101366.94
2023-05-08T01:48:09.070Z,101361.09
2023-05-08T01:51:01.825Z,101357.59
2023-05-08T01:53:55.768Z,101354.84
2023-05-08T01:56:44.483Z,101365.00
2023-05-08T01:59:33.673Z,101365.78
2023-05-08T02:02:19.340Z,101359.81
2023-05-08T02:05:07.393Z,101360.69
2023-05-08T02:07:53.985Z,101368.31
2023-05-08T02:10:40.704Z,101372.91
2023-05-08T02:13:27.355Z,101364.22
2023-05-08T02:16:14.455Z,101359.88
2023-05-08T02:19:01.702Z,101359.00
2023-05-08T02:21:48.351Z,101361.59
2023-05-08T02:24:35.509Z,101356.34
2023-05-08T02:27:27.184Z,101363.78
2023-05-08T02:30:15.438Z,101365.50
2023-05-08T02:33:01.406Z,101370.03
2023-05-08T02:35:49.335Z,101372.59
2023-05-08T02:38:37.221Z,101372.44
2023-05-08T02:41:24.274Z,101363.91
2023-05-08T02:44:09.777Z,101368.81
2023-05-08T02:47:10.483Z,101360.81
2023-05-08T02:50:28.422Z,101374.66
2023-05-08T02:53:24.614Z,101369.56
2023-05-08T02:56:30.839Z,101371.22
2023-05-08T02:59:24.655Z,101371.06
2023-05-08T03:02:14.108Z,101375.66
2023-05-08T03:05:06.486Z,101372.97
2023-05-08T03:07:56.517Z,101372.97
2023-05-08T03:10:45.106Z,101372.97
2023-05-08T03:13:34.372Z,101371.00
2023-05-08T03:16:23.251Z,101361.75
2023-05-08T03:19:24.150Z,101359.25
2023-05-08T03:22:11.402Z,101361.88
2023-05-08T03:25:00.611Z,101359.66
2023-05-08T03:27:47.846Z,101366.81
2023-05-08T03:30:36.733Z,101355.38
2023-05-08T03:33:23.319Z,101364.66
2023-05-08T03:36:11.536Z,101365.44
2023-05-08T03:38:57.411Z,101358.47
2023-05-08T03:41:44.945Z,101360.13
2023-05-08T03:44:30.853Z,101372.13
2023-05-08T03:47:17.970Z,101373.16
2023-05-08T03:50:03.753Z,101367.81
2023-05-08T03:52:48.766Z,101362.59
2023-05-08T03:55:37.014Z,101366.88
2023-05-08T03:58:38.396Z,101351.41
2023-05-08T04:01:40.580Z,101358.38
2023-05-08T04:04:39.978Z,101356.38
2023-05-08T04:07:31.051Z,101363.78
2023-05-08T04:10:24.530Z,101355.81
2023-05-08T04:13:15.967Z,101361.97
2023-05-08T04:16:09.587Z,101354.94
2023-05-08T04:19:02.208Z,101355.16
2023-05-08T04:21:50.060Z,101357.06
2023-05-08T04:24:40.686Z,101354.22
2023-05-08T04:27:26.684Z,101354.94
2023-05-08T04:30:12.788Z,101363.72
2023-05-08T04:32:59.702Z,101356.75
2023-05-08T04:35:45.647Z,101362.06
2023-05-08T04:38:30.768Z,101357.75
2023-05-08T04:41:16.463Z,101357.13
2023-05-08T04:44:03.756Z,101356.19
2023-05-08T04:46:48.791Z,101356.19
2023-05-08T04:49:34.188Z,101367.47
2023-05-08T04:52:19.553Z,101366.81
2023-05-08T04:55:05.884Z,101364.25
2023-05-08T04:57:51.081Z,101369.22
2023-05-08T05:00:36.176Z,101374.59
2023-05-08T05:03:21.417Z,101377.56
2023-05-08T05:06:06.770Z,101374.84
2023-05-08T05:08:51.943Z,101374.19
2023-05-08T05:11:37.315Z,101375.22
2023-05-08T05:14:22.883Z,101377.88
2023-05-08T05:17:08.230Z,101375.38
2023-05-08T05:19:53.629Z,101373.59
2023-05-08T05:22:38.904Z,101378.16
2023-05-08T05:25:23.984Z,101372.59
2023-05-08T05:28:09.142Z,101368.44
2023-05-08T05:30:54.545Z,101372.94
2023-05-08T05:33:40.176Z,101370.72
2023-05-08T05:36:25.439Z,101364.78
2023-05-08T05:39:10.739Z,101370.50
2023-05-08T05:41:56.281Z,101361.72
2023-05-08T05:44:41.655Z,101360.91
2023-05-08T05:47:27.580Z,101360.72
2023-05-08T05:50:12.947Z,101373.22
2023-05-08T05:52:58.169Z,101369.69
2023-05-08T05:55:43.564Z,101365.75
2023-05-08T05:58:28.777Z,101359.56
2023-05-08T06:01:14.215Z,101358.00
2023-05-08T06:03:59.326Z,101366.09
2023-05-08T06:06:44.534Z,101367.19
2023-05-08T06:09:29.631Z,101349.19
2023-05-08T06:12:15.916Z,101349.19
2023-05-08T06:15:01.118Z,101356.88
2023-05-08T06:17:46.603Z,101362.22
2023-05-08T06:20:31.881Z,101360.50
2023-05-08T06:23:17.454Z,101364.00
2023-05-08T06:26:02.625Z,101367.47
2023-05-08T06:28:48.037Z,101373.97
2023-05-08T06:31:33.565Z,101380.41
2023-05-08T06:34:18.801Z,101358.03
2023-05-08T06:37:04.097Z,101353.03
2023-05-08T06:39:57.285Z,101344.31
2023-05-08T06:42:49.370Z,101342.78
2023-05-08T06:45:34.862Z,101333.88
2023-05-08T06:48:20.207Z,101331.63
2023-05-08T06:51:05.509Z,101342.00
2023-05-08T06:53:50.708Z,101349.78
2023-05-08T06:56:38.061Z,101346.59
2023-05-08T06:59:23.376Z,101342.31
2023-05-08T07:02:09.250Z,101338.25
2023-05-08T07:04:54.978Z,101332.50
2023-05-08T07:07:40.265Z,101331.81
2023-05-08T07:10:25.585Z,101332.56
2023-05-08T07:13:10.923Z,101332.75
2023-05-08T07:15:56.116Z,101323.44
2023-05-08T07:18:41.670Z,101326.06
2023-05-08T07:21:26.807Z,101327.06
2023-05-08T07:24:12.174Z,101325.47
2023-05-08T07:26:57.555Z,101318.63
2023-05-08T07:29:43.512Z,101313.66
2023-05-08T07:32:28.617Z,101310.50
2023-05-08T07:35:13.818Z,101280.13
2023-05-08T07:38:01.268Z,101272.44
2023-05-08T07:40:46.296Z,101263.09
2023-05-08T07:43:31.930Z,101260.69
2023-05-08T07:46:20.744Z,101241.53
2023-05-08T07:49:05.814Z,101238.84
2023-05-08T07:51:50.522Z,101243.13
2023-05-08T07:54:35.898Z,101271.75
2023-05-08T07:57:21.153Z,101263.97
2023-05-08T08:00:08.723Z,101264.88
2023-05-08T08:02:54.143Z,101261.44
2023-05-08T08:05:39.351Z,101259.75
2023-05-08T08:08:24.744Z,101249.41
2023-05-08T08:11:09.690Z,101236.31
2023-05-08T08:13:54.997Z,101240.69
2023-05-08T08:16:40.459Z,101254.63
2023-05-08T08:19:25.946Z,101262.44
2023-05-08T08:22:11.059Z,101255.34
2023-05-08T08:24:56.653Z,101284.97
2023-05-08T08:27:42.047Z,101282.50
2023-05-08T08:30:27.688Z,101281.69
2023-05-08T08:33:12.774Z,101268.59
2023-05-08T08:35:57.948Z,101249.41
2023-05-08T08:38:43.445Z,101244.25
2023-05-08T08:41:28.951Z,101247.69
2023-05-08T08:44:14.563Z,101250.28
2023-05-08T08:47:01.443Z,101254.66
2023-05-08T08:49:51.212Z,101259.03
2023-05-08T08:53:01.377Z,101272.13
2023-05-08T08:55:49.737Z,101272.13
2023-05-08T08:58:49.046Z,101282.56
2023-05-08T09:01:35.848Z,101272.13
2023-05-08T09:04:21.313Z,101275.53
2023-05-08T09:07:07.091Z,101275.31
2023-05-08T09:09:52.223Z,101262.78
2023-05-08T09:12:37.732Z,101228.44
2023-05-08T09:15:23.166Z,101213.00
2023-05-08T09:18:08.574Z,101193.09
2023-05-08T09:20:54.472Z,101226.59
2023-05-08T09:23:59.013Z,101212.53
2023-05-08T09:26:44.245Z,101197.75
2023-05-08T09:29:29.837Z,101202.63
2023-05-08T09:32:18.552Z,101198.16
2023-05-08T09:35:05.556Z,101215.00
2023-05-08T09:37:51.181Z,101195.88
2023-05-08T09:40:36.423Z,101190.50
2023-05-08T09:43:21.576Z,101163.88
2023-05-08T09:46:27.060Z,101190.88
2023-05-08T09:49:17.780Z,101209.81
2023-05-08T09:52:03.461Z,101257.56
2023-05-08T09:54:56.821Z,101211.69
2023-05-08T09:57:52.413Z,101228.31
2023-05-08T10:00:39.294Z,101228.16
2023-05-08T10:03:45.543Z,101185.06
2023-05-08T10:06:31.297Z,101221.22
2023-05-08T10:09:16.629Z,101184.41
2023-05-08T10:12:02.125Z,101169.75
2023-05-08T10:14:47.290Z,101133.06
2023-05-08T10:17:45.515Z,101160.94
2023-05-08T10:20:32.962Z,101170.41
2023-05-08T10:23:20.425Z,101169.81
2023-05-08T10:26:12.170Z,101189.41
2023-05-08T10:28:59.421Z,101202.38
2023-05-08T10:31:46.547Z,101193.63
2023-05-08T10:34:32.219Z,101205.84
2023-05-08T10:37:17.305Z,101193.63
2023-05-08T10:40:03.635Z,101249.47
2023-05-08T10:42:51.874Z,101232.50
2023-05-08T10:45:38.137Z,101190.94
2023-05-08T10:48:51.293Z,101179.81
2023-05-08T10:55:32.857Z,101175.66
2023-05-08T10:58:23.671Z,101197.59
2023-05-08T11:01:08.669Z,101223.81
2023-05-08T11:03:54.063Z,101233.88
2023-05-08T11:06:48.072Z,101207.53
2023-05-08T11:09:42.332Z,101182.44
2023-05-08T11:12:29.342Z,101193.59
2023-05-08T11:15:14.758Z,101188.84
2023-05-08T11:18:04.491Z,101194.50
2023-05-08T11:20:56.955Z,101198.97
2023-05-08T11:23:42.084Z,101162.09
2023-05-08T11:26:39.893Z,101194.47
2023-05-08T11:29:25.450Z,101194.25
2023-05-08T11:32:11.670Z,101197.59
2023-05-08T11:34:57.327Z,101195.88
2023-05-08T11:38:16.984Z,101248.34
2023-05-08T11:41:21.679Z,101211.75
2023-05-08T11:44:20.881Z,101193.31
2023-05-08T11:47:07.194Z,101203.56
2023-05-08T11:49:55.153Z,101189.47
2023-05-08T11:52:42.477Z,101207.19
2023-05-08T11:55:27.631Z,101184.25
2023-05-08T11:58:17.740Z,101186.03
2023-05-08T12:01:06.130Z,101176.97
2023-05-08T12:04:04.483Z,101193.81
2023-05-08T12:06:49.720Z,101207.75
2023-05-08T12:09:35.085Z,101223.19
2023-05-08T12:12:20.460Z,101209.09
2023-05-08T12:15:08.216Z,101230.47
2023-05-08T12:18:02.409Z,101205.41
2023-05-08T12:20:59.008Z,101193.84
2023-05-08T12:23:44.809Z,101198.22
2023-05-08T12:26:29.784Z,101203.25
2023-05-08T12:29:18.791Z,101166.69
2023-05-08T12:32:05.200Z,101199.09
2023-05-08T12:34:52.420Z,101168.34
2023-05-08T12:37:40.686Z,101198.44
2023-05-08T12:40:39.867Z,101171.78
2023-05-08T12:43:33.678Z,101185.38
2023-05-08T12:49:08.561Z,101086.78
2023-05-08T12:52:04.973Z,101108.56
2023-05-08T12:54:49.839Z,101101.97
2023-05-08T12:57:36.803Z,101100.81
2023-05-08T13:00:22.100Z,101088.00
2023-05-08T13:03:08.985Z,101070.81
2023-05-08T13:05:58.747Z,101082.88
2023-05-08T13:08:44.151Z,101107.38
2023-05-08T13:11:32.732Z,101068.03
2023-05-08T13:14:18.111Z,101058.50
2023-05-08T13:17:03.516Z,101082.34
2023-05-08T13:19:48.814Z,101062.09
2023-05-08T13:22:33.656Z,101075.72
2023-05-08T13:25:18.961Z,101064.72
2023-05-08T13:28:09.408Z,101073.34
2023-05-08T13:30:54.595Z,101058.66
2023-05-08T13:33:39.456Z,101050.03
2023-05-08T13:36:24.973Z,101043.66
2023-05-08T13:39:10.689Z,101057.97
2023-05-08T13:41:55.993Z,101066.91
2023-05-08T13:44:40.844Z,101086.69
2023-05-08T13:47:26.137Z,101078.59
2023-05-08T13:50:12.914Z,101067.19
2023-05-08T13:52:59.962Z,101071.94
2023-05-08T13:55:52.371Z,101079.13
2023-05-08T13:58:37.494Z,101120.63
2023-05-08T14:01:27.166Z,101089.25
2023-05-08T14:04:12.619Z,101108.22
2023-05-08T14:06:58.113Z,101113.41
2023-05-08T14:09:43.659Z,101113.34
2023-05-08T14:12:31.198Z,101106.88
2023-05-08T14:15:16.668Z,101101.72
2023-05-08T14:18:01.840Z,101118.69
2023-05-08T14:20:56.422Z,101107.00
2023-05-08T14:23:42.169Z,101107.09
2023-05-08T14:26:27.364Z,101109.34
2023-05-08T14:29:12.963Z,101119.00
2023-05-08T14:31:58.561Z,101117.00
2023-05-08T14:34:43.791Z,101120.50
2023-05-08T14:37:28.613Z,101127.50
2023-05-08T14:40:14.088Z,101120.00
2023-05-08T14:42:59.205Z,101131.56
2023-05-08T14:45:44.275Z,101187.59
2023-05-08T14:48:29.592Z,101260.00
2023-05-08T14:51:14.571Z,101293.69
2023-05-08T14:54:00.274Z,101333.97
2023-05-08T15:02:38.780Z,101377.00
2023-05-08T15:05:24.344Z,101379.72
2023-05-08T15:08:10.613Z,101376.81
2023-05-08T15:10:56.003Z,101382.09
2023-05-08T15:13:40.972Z,101378.78
2023-05-08T15:16:26.025Z,101391.00
2023-05-08T15:19:11.396Z,101389.31
2023-05-08T15:21:56.636Z,101394.06
2023-05-08T15:24:41.537Z,101381.25
2023-05-08T15:27:26.919Z,101387.09
2023-05-08T15:30:13.008Z,101382.13
2023-05-08T15:32:58.517Z,101374.25
2023-05-08T15:35:43.710Z,101371.81
2023-05-08T15:38:28.708Z,101377.06
2023-05-08T15:41:15.383Z,101364.09
2023-05-08T15:44:01.142Z,101355.41
2023-05-08T15:46:46.629Z,101356.31
2023-05-08T15:49:31.601Z,101352.00
2023-05-08T15:52:17.231Z,101343.25
2023-05-08T15:55:02.657Z,101333.69
2023-05-08T15:57:47.740Z,101333.63
2023-05-08T16:00:44.019Z,101342.00
2023-05-08T16:03:31.062Z,101344.66
2023-05-08T16:06:16.206Z,101341.09
2023-05-08T16:09:01.210Z,101355.09
2023-05-08T16:11:46.520Z,101362.00
2023-05-08T16:14:31.486Z,101361.22
2023-05-08T16:17:16.395Z,101361.22
2023-05-08T16:20:01.837Z,101360.34
2023-05-08T16:22:47.224Z,101353.31
2023-05-08T16:25:32.235Z,101347.34
2023-05-08T16:28:17.534Z,101342.00
2023-05-08T16:31:08.946Z,101344.56
2023-05-08T16:33:54.127Z,101336.00
2023-05-08T16:36:39.528Z,101331.50
2023-05-08T16:39:24.655Z,101335.97
2023-05-08T16:42:09.481Z,101345.59
2023-05-08T16:44:54.942Z,101336.78
2023-05-08T16:47:39.908Z,101334.28
2023-05-08T16:50:25.400Z,101325.69
2023-05-08T16:53:10.871Z,101321.34
2023-05-08T16:55:55.768Z,101311.81
2023-05-08T16:58:41.275Z,101303.09
2023-05-08T17:01:26.238Z,101296.19
2023-05-08T17:04:11.478Z,101308.34
2023-05-08T17:06:56.857Z,101298.78
2023-05-08T17:09:42.069Z,101287.53
2023-05-08T17:12:27.325Z,101290.13
2023-05-08T17:15:12.894Z,101291.84
2023-05-08T17:17:58.195Z,101284.06
2023-05-08T17:20:43.400Z,101282.31
2023-05-08T17:23:28.758Z,101273.66
2023-05-08T17:26:14.189Z,101271.94
2023-05-08T17:28:59.602Z,101277.19
2023-05-08T17:31:44.623Z,101273.66
2023-05-08T17:34:29.679Z,101278.00
2023-05-08T17:37:15.042Z,101294.56
2023-05-08T17:40:00.340Z,101301.47
2023-05-08T17:42:45.817Z,101308.97
2023-05-08T17:45:31.853Z,101305.50
2023-05-08T17:48:16.890Z,101309.94
2023-05-08T17:51:02.531Z,101313.50
2023-05-08T17:53:47.487Z,101320.53
2023-05-08T17:56:34.213Z,101325.81
2023-05-08T17:59:19.807Z,101313.63
2023-05-08T18:02:05.194Z,101315.44
2023-05-08T18:04:50.695Z,101321.50
2023-05-08T18:07:36.060Z,101317.22
2023-05-08T18:10:21.204Z,101315.44
2023-05-08T18:13:06.371Z,101308.53
2023-05-08T18:15:51.694Z,101311.13
2023-05-08T18:18:38.134Z,101294.56
2023-05-08T18:21:23.030Z,101298.97
2023-05-08T18:24:08.494Z,101301.59
2023-05-08T18:26:53.722Z,101313.78
2023-05-08T18:29:39.215Z,101306.78
2023-05-08T18:32:24.665Z,101305.00
2023-05-08T18:35:16.187Z,101300.63
2023-05-08T18:38:01.455Z,101304.09
2023-05-08T18:40:46.548Z,101296.34
2023-05-08T18:43:31.932Z,101298.88
2023-05-08T18:46:16.898Z,101301.47
2023-05-08T18:49:02.395Z,101297.13
2023-05-08T18:51:49.185Z,101295.34
2023-05-08T18:54:38.446Z,101294.47
2023-05-08T18:57:26.529Z,101295.28
2023-05-08T19:00:11.861Z,101293.53
2023-05-08T19:02:57.226Z,101295.22
2023-05-08T19:05:43.639Z,101306.63
2023-05-08T19:08:29.006Z,101306.66
2023-05-08T19:11:14.116Z,101306.59
2023-05-08T19:13:59.172Z,101310.09
2023-05-08T19:16:44.029Z,101304.88
2023-05-08T19:19:29.011Z,101318.84
2023-05-08T19:22:14.475Z,101315.31
2023-05-08T19:24:59.975Z,101305.75
2023-05-08T19:27:45.435Z,101307.47
2023-05-08T19:30:30.612Z,101309.16
2023-05-08T19:33:15.709Z,101316.13
2023-05-08T19:36:01.018Z,101312.72
2023-05-08T19:38:45.986Z,101311.84
2023-05-08T19:41:31.400Z,101316.22
2023-05-08T19:44:16.365Z,101318.81
2023-05-08T19:47:03.753Z,101319.66
2023-05-08T19:49:49.436Z,101318.78
2023-05-08T19:52:34.547Z,101317.00
2023-05-08T19:55:19.877Z,101320.53
2023-05-08T19:58:05.040Z,101326.63
2023-05-08T20:00:51.961Z,101329.25
2023-05-08T20:03:37.464Z,101326.59
2023-05-08T20:06:22.748Z,101323.09
2023-05-08T20:09:08.383Z,101320.44
2023-05-08T20:11:53.713Z,101319.66
2023-05-08T20:14:38.653Z,101306.63
2023-05-08T20:17:23.696Z,101315.16
2023-05-08T20:20:11.884Z,101319.50
2023-05-08T20:22:57.400Z,101316.00
2023-05-08T20:25:44.282Z,101309.03
2023-05-08T20:28:29.400Z,101310.75
2023-05-08T20:31:17.944Z,101315.16
2023-05-08T20:34:03.397Z,101305.53
2023-05-08T20:36:48.374Z,101309.97
2023-05-08T20:39:33.874Z,101307.34
2023-05-08T20:42:19.382Z,101306.44
2023-05-08T20:45:05.211Z,101314.22
2023-05-08T20:47:50.531Z,101308.22
2023-05-08T20:50:35.680Z,101308.28
2023-05-08T20:53:20.529Z,101300.38
2023-05-08T20:56:05.727Z,101298.63
2023-05-08T20:58:50.487Z,101300.38
2023-05-08T21:01:35.394Z,101292.72
2023-05-08T21:04:20.763Z,101295.31
2023-05-08T21:07:06.482Z,101285.69
2023-05-08T21:09:51.604Z,101286.50
2023-05-08T21:12:36.631Z,101271.63
2023-05-08T21:15:22.019Z,101269.06
2023-05-08T21:18:07.288Z,101262.91
2023-05-08T21:20:52.455Z,101255.09
2023-05-08T21:23:37.265Z,101249.00
2023-05-08T21:26:22.186Z,101238.59
2023-05-08T21:29:07.510Z,101235.13
2023-05-08T21:31:52.927Z,101218.56
2023-05-08T21:34:38.206Z,101208.16
2023-05-08T21:37:23.778Z,101215.97
2023-05-08T21:40:09.024Z,101205.44
2023-05-08T21:42:54.179Z,101201.97
2023-05-08T21:45:39.106Z,101201.09
2023-05-08T21:48:24.468Z,101207.16
2023-05-08T21:51:10.238Z,101197.53
2023-05-08T21:53:55.483Z,101203.59
2023-05-08T21:56:40.577Z,101199.34
2023-05-08T21:59:26.083Z,101188.88
2023-05-08T22:02:11.448Z,101187.06
2023-05-08T22:04:56.921Z,101184.56
2023-05-08T22:07:42.208Z,101184.44
2023-05-08T22:10:27.149Z,101188.66
2023-05-08T22:13:13.050Z,101187.72
2023-05-08T22:15:57.928Z,101191.22
2023-05-08T22:18:43.440Z,101189.44
2023-05-08T22:21:28.764Z,101183.44
2023-05-08T22:24:14.316Z,101182.47
2023-05-08T22:26:59.311Z,101177.25
2023-05-08T22:29:44.503Z,101180.78
2023-05-08T22:32:30.359Z,101180.78
2023-05-08T22:35:16.016Z,101185.09
2023-05-08T22:38:01.331Z,101185.06
2023-05-08T22:40:46.691Z,101178.16
2023-05-08T22:43:32.769Z,101182.44
2023-05-08T22:46:18.699Z,101174.66
2023-05-08T22:49:03.954Z,101168.63
2023-05-08T22:51:50.411Z,101159.09
2023-05-08T22:54:35.808Z,101151.34
2023-05-08T22:57:20.961Z,101133.94
2023-05-08T23:00:07.255Z,101146.06
2023-05-08T23:02:52.405Z,101136.50
2023-05-08T23:05:37.608Z,101138.22
2023-05-08T23:08:22.648Z,101142.56
2023-05-08T23:11:08.154Z,101143.47
2023-05-08T23:13:53.566Z,101134.72
2023-05-08T23:16:38.995Z,101146.88
2023-05-08T23:19:24.472Z,101144.31
2023-05-08T23:22:09.837Z,101143.38
2023-05-08T23:24:55.003Z,101140.81
2023-05-08T23:27:40.777Z,101132.22
2023-05-08T23:30:26.313Z,101113.94
2023-05-08T23:33:11.806Z,101100.94
2023-05-08T23:35:58.604Z,101115.69
2023-05-08T23:38:43.991Z,101126.09
2023-05-08T23:41:29.412Z,101133.03
2023-05-08T23:44:15.347Z,101130.34
2023-05-08T23:47:00.785Z,101139.84
2023-05-08T23:49:46.858Z,101151.13
2023-05-08T23:52:31.987Z,101152.00
2023-05-08T23:55:17.371Z,101146.69
2023-05-08T23:58:02.704Z,101136.25
